sensor_id;sensor_type;location;lat;lon;timestamp;pressure;altitude;pressure_sealevel;temperature;humidity
72096;BME280;59968;51.084;16.748;2023-04-28T00:03:44;100685.02;;;6.22;65.04
72096;BME280;59968;51.084;16.748;2023-04-28T00:16:45;100676.12;;;6.30;65.60
72096;BME280;59968;51.084;16.748;2023-04-28T00:20:05;100675.13;;;6.33;65.70
72096;BME280;59968;51.084;16.748;2023-04-28T00:23:05;100649.73;;;6.19;65.73
72096;BME280;59968;51.084;16.748;2023-04-28T00:28:29;100669.86;;;6.38;65.78
72096;BME280;59968;51.084;16.748;2023-04-28T00:32:08;100670.73;;;6.42;65.92
72096;BME280;59968;51.084;16.748;2023-04-28T00:38:32;100669.73;;;6.51;65.88
72096;BME280;59968;51.084;16.748;2023-04-28T00:42:01;100665.20;;;6.55;66.06
72096;BME280;59968;51.084;16.748;2023-04-28T00:44:57;100664.79;;;6.59;66.34
72096;BME280;59968;51.084;16.748;2023-04-28T00:51:22;100665.46;;;6.67;66.54
72096;BME280;59968;51.084;16.748;2023-04-28T00:54:38;100663.38;;;6.71;66.52
72096;BME280;59968;51.084;16.748;2023-04-28T00:57:55;100656.36;;;6.74;66.68
72096;BME280;59968;51.084;16.748;2023-04-28T01:00:48;100655.48;;;6.77;66.66
72096;BME280;59968;51.084;16.748;2023-04-28T01:04:03;100657.39;;;6.81;66.77
72096;BME280;59968;51.084;16.748;2023-04-28T01:07:31;100650.60;;;6.83;66.67
72096;BME280;59968;51.084;16.748;2023-04-28T01:10:12;100650.95;;;6.85;66.63
72096;BME280;59968;51.084;16.748;2023-04-28T01:13:37;100646.14;;;6.87;66.69
72096;BME280;59968;51.084;16.748;2023-04-28T01:19:32;100642.28;;;6.89;66.79
72096;BME280;59968;51.084;16.748;2023-04-28T01:22:10;100640.08;;;6.90;66.88
72096;BME280;59968;51.084;16.748;2023-04-28T01:25:19;100639.48;;;6.91;66.77
72096;BME280;59968;51.084;16.748;2023-04-28T01:40:21;100633.27;;;6.89;66.69
72096;BME280;59968;51.084;16.748;2023-04-28T01:43:24;100632.38;;;6.90;66.84
72096;BME280;59968;51.084;16.748;2023-04-28T01:46:33;100630.70;;;6.89;67.08
72096;BME280;59968;51.084;16.748;2023-04-28T01:49:45;100627.83;;;6.87;67.36
72096;BME280;59968;51.084;16.748;2023-04-28T01:52:54;100623.52;;;6.86;67.57
72096;BME280;59968;51.084;16.748;2023-04-28T01:56:09;100622.98;;;6.86;67.66
72096;BME280;59968;51.084;16.748;2023-04-28T02:06:02;100627.19;;;6.82;68.06
72096;BME280;59968;51.084;16.748;2023-04-28T02:12:37;100621.61;;;6.83;68.33
72096;BME280;59968;51.084;16.748;2023-04-28T02:15:24;100615.15;;;6.85;68.53
72096;BME280;59968;51.084;16.748;2023-04-28T02:21:56;100613.98;;;6.92;68.40
72096;BME280;59968;51.084;16.748;2023-04-28T02:28:31;100605.37;;;6.98;68.39
72096;BME280;59968;51.084;16.748;2023-04-28T02:31:06;100602.91;;;7.00;68.17
72096;BME280;59968;51.084;16.748;2023-04-28T02:34:06;100601.81;;;7.02;68.09
72096;BME280;59968;51.084;16.748;2023-04-28T02:44:30;100603.92;;;7.07;67.88
72096;BME280;59968;51.084;16.748;2023-04-28T02:47:39;100601.64;;;7.11;67.85
72096;BME280;59968;51.084;16.748;2023-04-28T02:57:48;100603.48;;;7.15;67.19
72096;BME280;59968;51.084;16.748;2023-04-28T03:01:10;100605.32;;;7.17;67.01
72096;BME280;59968;51.084;16.748;2023-04-28T03:09:02;100602.77;;;7.13;67.12
72096;BME280;59968;51.084;16.748;2023-04-28T03:12:06;100600.96;;;7.14;67.05
72096;BME280;59968;51.084;16.748;2023-04-28T03:14:49;100599.33;;;7.13;67.09
72096;BME280;59968;51.084;16.748;2023-04-28T03:17:57;100599.60;;;7.12;67.06
72096;BME280;59968;51.084;16.748;2023-04-28T03:39:18;100586.95;;;6.80;66.79
72096;BME280;59968;51.084;16.748;2023-04-28T03:42:27;100601.58;;;6.89;66.50
72096;BME280;59968;51.084;16.748;2023-04-28T03:49:08;100596.42;;;6.94;65.92
72096;BME280;59968;51.084;16.748;2023-04-28T03:52:03;100597.80;;;6.95;65.84
72096;BME280;59968;51.084;16.748;2023-04-28T03:54:55;100595.95;;;6.94;65.86
72096;BME280;59968;51.084;16.748;2023-04-28T03:58:26;100592.34;;;6.99;65.81
72096;BME280;59968;51.084;16.748;2023-04-28T04:01:50;100583.52;;;7.05;65.62
72096;BME280;59968;51.084;16.748;2023-04-28T04:05:02;100583.20;;;7.09;65.56
72096;BME280;59968;51.084;16.748;2023-04-28T04:08:02;100581.67;;;7.16;65.54
72096;BME280;59968;51.084;16.748;2023-04-28T04:10:51;100580.34;;;7.22;65.39
72096;BME280;59968;51.084;16.748;2023-04-28T04:13:46;100585.64;;;7.29;65.38
72096;BME280;59968;51.084;16.748;2023-04-28T04:16:19;100585.14;;;7.35;65.34
72096;BME280;59968;51.084;16.748;2023-04-28T04:25:19;100577.31;;;7.51;64.88
72096;BME280;59968;51.084;16.748;2023-04-28T04:28:20;100574.16;;;7.52;64.81
72096;BME280;59968;51.084;16.748;2023-04-28T04:31:12;100570.77;;;7.55;64.83
72096;BME280;59968;51.084;16.748;2023-04-28T04:34:11;100572.63;;;7.60;64.97
72096;BME280;59968;51.084;16.748;2023-04-28T04:37:04;100571.39;;;7.65;65.05
72096;BME280;59968;51.084;16.748;2023-04-28T04:40:00;100571.55;;;7.69;65.17
72096;BME280;59968;51.084;16.748;2023-04-28T04:42:36;100568.47;;;7.73;65.06
72096;BME280;59968;51.084;16.748;2023-04-28T04:45:20;100573.69;;;7.81;65.10
72096;BME280;59968;51.084;16.748;2023-04-28T04:47:52;100571.09;;;7.86;65.04
72096;BME280;59968;51.084;16.748;2023-04-28T04:50:34;100571.83;;;7.90;65.11
72096;BME280;59968;51.084;16.748;2023-04-28T04:53:04;100572.44;;;7.94;64.89
72096;BME280;59968;51.084;16.748;2023-04-28T04:55:40;100573.79;;;7.99;64.71
72096;BME280;59968;51.084;16.748;2023-04-28T04:58:12;100573.81;;;8.02;64.34
72096;BME280;59968;51.084;16.748;2023-04-28T05:01:00;100573.36;;;8.05;64.15
72096;BME280;59968;51.084;16.748;2023-04-28T05:03:30;100571.76;;;8.07;64.01
72096;BME280;59968;51.084;16.748;2023-04-28T05:05:59;100573.78;;;8.12;63.95
72096;BME280;59968;51.084;16.748;2023-04-28T05:08:41;100570.02;;;8.14;63.72
72096;BME280;59968;51.084;16.748;2023-04-28T05:11:10;100568.20;;;8.18;63.86
72096;BME280;59968;51.084;16.748;2023-04-28T05:13:44;100565.31;;;8.24;63.90
72096;BME280;59968;51.084;16.748;2023-04-28T05:16:14;100558.95;;;8.31;63.81
72096;BME280;59968;51.084;16.748;2023-04-28T05:19:01;100562.62;;;8.37;63.88
72096;BME280;59968;51.084;16.748;2023-04-28T05:21:29;100560.21;;;8.44;63.83
72096;BME280;59968;51.084;16.748;2023-04-28T05:23:59;100561.59;;;8.55;63.71
72096;BME280;59968;51.084;16.748;2023-04-28T05:26:28;100560.46;;;8.65;63.58
72096;BME280;59968;51.084;16.748;2023-04-28T05:29:02;100559.89;;;8.76;63.36
72096;BME280;59968;51.084;16.748;2023-04-28T05:31:31;100557.30;;;8.85;63.00
72096;BME280;59968;51.084;16.748;2023-04-28T05:34:01;100553.83;;;8.93;62.67
72096;BME280;59968;51.084;16.748;2023-04-28T05:36:30;100558.80;;;9.03;62.49
72096;BME280;59968;51.084;16.748;2023-04-28T05:38:59;100557.14;;;9.09;62.27
72096;BME280;59968;51.084;16.748;2023-04-28T05:41:28;100552.95;;;9.21;62.16
72096;BME280;59968;51.084;16.748;2023-04-28T05:44:00;100555.30;;;9.30;61.91
72096;BME280;59968;51.084;16.748;2023-04-28T05:46:30;100556.11;;;9.38;61.87
72096;BME280;59968;51.084;16.748;2023-04-28T05:49:00;100550.75;;;9.47;61.55
72096;BME280;59968;51.084;16.748;2023-04-28T05:51:33;100545.69;;;9.56;61.68
72096;BME280;59968;51.084;16.748;2023-04-28T05:54:02;100545.25;;;9.68;61.44
72096;BME280;59968;51.084;16.748;2023-04-28T05:56:39;100541.48;;;9.79;61.56
72096;BME280;59968;51.084;16.748;2023-04-28T05:59:12;100545.09;;;9.91;61.09
72096;BME280;59968;51.084;16.748;2023-04-28T06:01:42;100540.02;;;10.03;61.24
72096;BME280;59968;51.084;16.748;2023-04-28T06:04:14;100541.45;;;10.16;61.07
72096;BME280;59968;51.084;16.748;2023-04-28T06:06:47;100536.60;;;10.29;60.46
72096;BME280;59968;51.084;16.748;2023-04-28T06:09:16;100534.69;;;10.41;60.06
72096;BME280;59968;51.084;16.748;2023-04-28T06:11:46;100531.40;;;10.53;59.50
72096;BME280;59968;51.084;16.748;2023-04-28T06:14:15;100532.64;;;10.61;59.57
72096;BME280;59968;51.084;16.748;2023-04-28T06:16:45;100525.06;;;10.69;59.29
72096;BME280;59968;51.084;16.748;2023-04-28T06:19:13;100526.86;;;10.77;58.50
72096;BME280;59968;51.084;16.748;2023-04-28T06:21:46;100523.85;;;10.83;58.38
72096;BME280;59968;51.084;16.748;2023-04-28T06:24:18;100516.52;;;10.81;58.05
72096;BME280;59968;51.084;16.748;2023-04-28T06:26:50;100523.77;;;10.87;57.60
72096;BME280;59968;51.084;16.748;2023-04-28T06:29:22;100520.89;;;10.92;57.59
72096;BME280;59968;51.084;16.748;2023-04-28T06:31:51;100522.44;;;10.97;57.13
72096;BME280;59968;51.084;16.748;2023-04-28T06:34:24;100522.36;;;11.03;56.51
72096;BME280;59968;51.084;16.748;2023-04-28T06:36:58;100521.86;;;11.11;56.72
72096;BME280;59968;51.084;16.748;2023-04-28T06:39:27;100518.93;;;11.18;56.68
72096;BME280;59968;51.084;16.748;2023-04-28T06:41:56;100518.59;;;11.29;56.72
72096;BME280;59968;51.084;16.748;2023-04-28T06:44:27;100489.02;;;11.22;56.63
72096;BME280;59968;51.084;16.748;2023-04-28T06:46:56;100510.94;;;11.47;56.16
72096;BME280;59968;51.084;16.748;2023-04-28T06:49:25;100516.28;;;11.64;56.26
72096;BME280;59968;51.084;16.748;2023-04-28T06:51:59;100513.11;;;11.76;55.46
72096;BME280;59968;51.084;16.748;2023-04-28T06:54:30;100509.36;;;11.86;54.59
72096;BME280;59968;51.084;16.748;2023-04-28T06:56:59;100512.90;;;11.96;54.51
72096;BME280;59968;51.084;16.748;2023-04-28T06:59:31;100513.59;;;12.08;54.74
72096;BME280;59968;51.084;16.748;2023-04-28T07:02:00;100512.86;;;12.22;54.33
72096;BME280;59968;51.084;16.748;2023-04-28T07:04:29;100509.86;;;12.36;53.76
72096;BME280;59968;51.084;16.748;2023-04-28T07:07:00;100508.98;;;12.47;53.59
72096;BME280;59968;51.084;16.748;2023-04-28T07:09:29;100501.48;;;12.57;53.50
72096;BME280;59968;51.084;16.748;2023-04-28T07:11:58;100500.34;;;12.69;53.03
72096;BME280;59968;51.084;16.748;2023-04-28T07:14:36;100498.37;;;12.83;52.33
72096;BME280;59968;51.084;16.748;2023-04-28T07:17:05;100488.88;;;12.92;52.14
72096;BME280;59968;51.084;16.748;2023-04-28T07:19:37;100488.56;;;13.09;52.54
72096;BME280;59968;51.084;16.748;2023-04-28T07:22:06;100484.59;;;13.26;52.16
72096;BME280;59968;51.084;16.748;2023-04-28T07:24:35;100481.52;;;13.40;51.24
72096;BME280;59968;51.084;16.748;2023-04-28T07:27:04;100477.38;;;13.51;50.86
72096;BME280;59968;51.084;16.748;2023-04-28T07:29:32;100463.02;;;13.53;50.27
72096;BME280;59968;51.084;16.748;2023-04-28T07:32:02;100479.58;;;13.71;50.24
72096;BME280;59968;51.084;16.748;2023-04-28T07:34:36;100476.52;;;13.80;49.79
72096;BME280;59968;51.084;16.748;2023-04-28T07:37:05;100472.57;;;13.83;49.10
72096;BME280;59968;51.084;16.748;2023-04-28T07:39:34;100449.84;;;13.80;49.41
72096;BME280;59968;51.084;16.748;2023-04-28T07:42:03;100467.23;;;14.06;48.95
72096;BME280;59968;51.084;16.748;2023-04-28T07:44:56;100462.10;;;14.21;48.42
72096;BME280;59968;51.084;16.748;2023-04-28T07:47:28;100461.84;;;14.38;48.21
72096;BME280;59968;51.084;16.748;2023-04-28T07:49:57;100457.90;;;14.52;48.29
72096;BME280;59968;51.084;16.748;2023-04-28T07:52:31;100460.48;;;14.70;47.99
72096;BME280;59968;51.084;16.748;2023-04-28T07:55:00;100454.17;;;14.85;47.41
72096;BME280;59968;51.084;16.748;2023-04-28T07:57:30;100449.66;;;15.01;48.07
72096;BME280;59968;51.084;16.748;2023-04-28T07:59:59;100450.11;;;15.19;47.30
72096;BME280;59968;51.084;16.748;2023-04-28T08:02:39;100445.72;;;15.32;46.29
72096;BME280;59968;51.084;16.748;2023-04-28T08:05:08;100446.36;;;15.42;46.22
72096;BME280;59968;51.084;16.748;2023-04-28T08:07:38;100446.61;;;15.50;46.08
72096;BME280;59968;51.084;16.748;2023-04-28T08:10:11;100441.48;;;15.56;46.29
72096;BME280;59968;51.084;16.748;2023-04-28T08:12:40;100437.53;;;15.64;45.65
72096;BME280;59968;51.084;16.748;2023-04-28T08:15:10;100436.25;;;15.67;45.59
72096;BME280;59968;51.084;16.748;2023-04-28T08:17:39;100436.80;;;15.69;45.58
72096;BME280;59968;51.084;16.748;2023-04-28T08:20:08;100438.02;;;15.72;45.43
72096;BME280;59968;51.084;16.748;2023-04-28T08:22:38;100439.32;;;15.84;45.29
72096;BME280;59968;51.084;16.748;2023-04-28T08:25:09;100436.96;;;15.98;44.67
72096;BME280;59968;51.084;16.748;2023-04-28T08:27:38;100436.56;;;16.08;43.84
72096;BME280;59968;51.084;16.748;2023-04-28T08:30:08;100438.21;;;16.17;44.57
72096;BME280;59968;51.084;16.748;2023-04-28T08:32:37;100431.24;;;16.26;44.02
72096;BME280;59968;51.084;16.748;2023-04-28T08:35:06;100428.06;;;16.37;43.11
72096;BME280;59968;51.084;16.748;2023-04-28T08:37:35;100427.18;;;16.46;43.26
72096;BME280;59968;51.084;16.748;2023-04-28T08:40:05;100426.84;;;16.56;43.37
72096;BME280;59968;51.084;16.748;2023-04-28T08:42:37;100421.10;;;16.63;43.47
72096;BME280;59968;51.084;16.748;2023-04-28T08:45:07;100418.77;;;16.73;43.37
72096;BME280;59968;51.084;16.748;2023-04-28T08:47:40;100419.85;;;16.90;43.34
72096;BME280;59968;51.084;16.748;2023-04-28T08:50:13;100411.46;;;16.96;43.76
72096;BME280;59968;51.084;16.748;2023-04-28T08:52:42;100409.21;;;17.09;43.01
72096;BME280;59968;51.084;16.748;2023-04-28T08:55:11;100406.68;;;17.22;43.27
72096;BME280;59968;51.084;16.748;2023-04-28T08:57:44;100406.02;;;17.34;42.21
72096;BME280;59968;51.084;16.748;2023-04-28T09:00:13;100402.34;;;17.44;42.23
72096;BME280;59968;51.084;16.748;2023-04-28T09:02:42;100398.19;;;17.56;42.29
72096;BME280;59968;51.084;16.748;2023-04-28T09:05:12;100397.25;;;17.66;42.16
72096;BME280;59968;51.084;16.748;2023-04-28T09:07:45;100392.73;;;17.81;41.30
72096;BME280;59968;51.084;16.748;2023-04-28T09:10:23;100389.83;;;17.92;40.57
72096;BME280;59968;51.084;16.748;2023-04-28T09:12:55;100383.91;;;18.01;40.40
72096;BME280;59968;51.084;16.748;2023-04-28T09:17:56;100380.17;;;18.10;41.31
72096;BME280;59968;51.084;16.748;2023-04-28T09:20:27;100375.92;;;18.16;40.45
72096;BME280;59968;51.084;16.748;2023-04-28T09:23:18;100369.64;;;18.23;40.54
72096;BME280;59968;51.084;16.748;2023-04-28T09:26:00;100371.08;;;18.36;39.88
72096;BME280;59968;51.084;16.748;2023-04-28T09:28:30;100373.40;;;18.31;40.28
72096;BME280;59968;51.084;16.748;2023-04-28T09:31:02;100364.59;;;18.35;40.30
72096;BME280;59968;51.084;16.748;2023-04-28T09:33:31;100367.42;;;18.41;39.65
72096;BME280;59968;51.084;16.748;2023-04-28T09:36:00;100363.89;;;18.46;39.80
72096;BME280;59968;51.084;16.748;2023-04-28T09:38:29;100361.41;;;18.51;39.85
72096;BME280;59968;51.084;16.748;2023-04-28T09:41:00;100346.02;;;18.51;39.89
72096;BME280;59968;51.084;16.748;2023-04-28T09:43:33;100351.23;;;18.64;39.30
72096;BME280;59968;51.084;16.748;2023-04-28T09:46:04;100351.05;;;18.74;39.47
72096;BME280;59968;51.084;16.748;2023-04-28T09:48:37;100339.27;;;18.80;38.83
72096;BME280;59968;51.084;16.748;2023-04-28T09:51:07;100337.82;;;18.91;38.40
72096;BME280;59968;51.084;16.748;2023-04-28T09:53:38;100337.53;;;18.92;38.60
72096;BME280;59968;51.084;16.748;2023-04-28T09:56:07;100333.02;;;18.96;38.55
72096;BME280;59968;51.084;16.748;2023-04-28T09:58:39;100328.94;;;19.02;38.30
72096;BME280;59968;51.084;16.748;2023-04-28T10:01:08;100328.20;;;19.11;38.66
72096;BME280;59968;51.084;16.748;2023-04-28T10:03:38;100317.83;;;19.21;38.09
72096;BME280;59968;51.084;16.748;2023-04-28T10:06:08;100312.66;;;19.33;37.67
72096;BME280;59968;51.084;16.748;2023-04-28T10:08:37;100306.54;;;19.39;38.06
72096;BME280;59968;51.084;16.748;2023-04-28T10:11:07;100303.48;;;19.44;37.24
72096;BME280;59968;51.084;16.748;2023-04-28T10:13:37;100298.08;;;19.49;37.48
72096;BME280;59968;51.084;16.748;2023-04-28T10:16:06;100299.96;;;19.58;37.16
72096;BME280;59968;51.084;16.748;2023-04-28T10:18:36;100293.89;;;19.65;37.20
72096;BME280;59968;51.084;16.748;2023-04-28T10:21:06;100284.57;;;19.70;37.24
72096;BME280;59968;51.084;16.748;2023-04-28T10:26:26;100276.98;;;19.92;36.19
72096;BME280;59968;51.084;16.748;2023-04-28T10:29:04;100267.77;;;19.97;36.30
72096;BME280;59968;51.084;16.748;2023-04-28T10:31:34;100271.40;;;19.99;35.74
72096;BME280;59968;51.084;16.748;2023-04-28T10:34:23;100269.63;;;19.96;36.55
72096;BME280;59968;51.084;16.748;2023-04-28T10:36:53;100255.70;;;19.84;36.50
72096;BME280;59968;51.084;16.748;2023-04-28T10:39:23;100268.33;;;19.90;36.42
72096;BME280;59968;51.084;16.748;2023-04-28T10:41:51;100263.77;;;19.92;36.21
72096;BME280;59968;51.084;16.748;2023-04-28T10:47:08;100259.69;;;20.03;36.81
72096;BME280;59968;51.084;16.748;2023-04-28T11:00:48;100242.39;;;20.14;35.21
72096;BME280;59968;51.084;16.748;2023-04-28T11:06:47;100240.03;;;20.21;35.61
72096;BME280;59968;51.084;16.748;2023-04-28T11:12:04;100228.46;;;20.37;35.26
72096;BME280;59968;51.084;16.748;2023-04-28T11:14:36;100227.45;;;20.53;35.32
72096;BME280;59968;51.084;16.748;2023-04-28T11:17:09;100219.59;;;20.65;35.27
72096;BME280;59968;51.084;16.748;2023-04-28T11:19:43;100219.04;;;20.69;35.47
72096;BME280;59968;51.084;16.748;2023-04-28T11:22:21;100217.38;;;20.73;35.60
72096;BME280;59968;51.084;16.748;2023-04-28T11:24:57;100211.56;;;20.83;34.31
72096;BME280;59968;51.084;16.748;2023-04-28T11:27:30;100209.75;;;20.90;35.19
72096;BME280;59968;51.084;16.748;2023-04-28T11:29:59;100212.98;;;20.97;35.09
72096;BME280;59968;51.084;16.748;2023-04-28T11:32:34;100209.82;;;20.95;34.43
72096;BME280;59968;51.084;16.748;2023-04-28T11:35:06;100210.27;;;20.91;33.48
72096;BME280;59968;51.084;16.748;2023-04-28T11:37:37;100206.87;;;20.85;33.54
72096;BME280;59968;51.084;16.748;2023-04-28T11:40:11;100203.52;;;20.90;32.94
72096;BME280;59968;51.084;16.748;2023-04-28T11:42:47;100199.27;;;21.07;32.68
72096;BME280;59968;51.084;16.748;2023-04-28T11:45:16;100205.05;;;21.18;32.82
72096;BME280;59968;51.084;16.748;2023-04-28T11:47:45;100200.25;;;21.16;33.30
72096;BME280;59968;51.084;16.748;2023-04-28T11:50:15;100194.13;;;21.12;32.97
72096;BME280;59968;51.084;16.748;2023-04-28T11:52:48;100196.66;;;21.10;33.28
72096;BME280;59968;51.084;16.748;2023-04-28T11:55:21;100195.08;;;21.10;33.09
72096;BME280;59968;51.084;16.748;2023-04-28T11:58:19;100193.23;;;21.12;32.90
72096;BME280;59968;51.084;16.748;2023-04-28T12:01:09;100191.59;;;21.13;32.40
72096;BME280;59968;51.084;16.748;2023-04-28T12:03:43;100190.58;;;21.25;33.16
72096;BME280;59968;51.084;16.748;2023-04-28T12:06:18;100188.47;;;21.35;32.56
72096;BME280;59968;51.084;16.748;2023-04-28T12:08:47;100187.09;;;21.38;32.61
72096;BME280;59968;51.084;16.748;2023-04-28T12:11:17;100187.84;;;21.35;33.23
72096;BME280;59968;51.084;16.748;2023-04-28T12:14:06;100183.36;;;21.36;32.75
72096;BME280;59968;51.084;16.748;2023-04-28T12:16:37;100182.77;;;21.36;32.93
72096;BME280;59968;51.084;16.748;2023-04-28T12:19:07;100174.12;;;21.37;32.29
72096;BME280;59968;51.084;16.748;2023-04-28T12:22:02;100171.75;;;21.42;32.35
72096;BME280;59968;51.084;16.748;2023-04-28T12:25:20;100160.83;;;21.44;31.87
72096;BME280;59968;51.084;16.748;2023-04-28T12:28:06;100165.10;;;21.45;31.61
72096;BME280;59968;51.084;16.748;2023-04-28T12:30:36;100159.42;;;21.57;31.26
72096;BME280;59968;51.084;16.748;2023-04-28T12:33:22;100157.30;;;21.61;31.33
72096;BME280;59968;51.084;16.748;2023-04-28T12:35:53;100155.13;;;21.57;31.34
72096;BME280;59968;51.084;16.748;2023-04-28T12:38:24;100148.80;;;21.51;31.62
72096;BME280;59968;51.084;16.748;2023-04-28T12:40:53;100146.16;;;21.48;31.83
72096;BME280;59968;51.084;16.748;2023-04-28T12:43:24;100146.11;;;21.42;31.30
72096;BME280;59968;51.084;16.748;2023-04-28T12:45:54;100140.04;;;21.37;30.93
72096;BME280;59968;51.084;16.748;2023-04-28T12:48:24;100146.05;;;21.45;30.67
72096;BME280;59968;51.084;16.748;2023-04-28T12:50:53;100146.27;;;21.47;30.71
72096;BME280;59968;51.084;16.748;2023-04-28T12:53:21;100144.89;;;21.46;31.27
72096;BME280;59968;51.084;16.748;2023-04-28T12:55:50;100139.30;;;21.44;31.35
72096;BME280;59968;51.084;16.748;2023-04-28T12:58:20;100135.77;;;21.43;31.85
72096;BME280;59968;51.084;16.748;2023-04-28T13:00:49;100130.65;;;21.47;31.38
72096;BME280;59968;51.084;16.748;2023-04-28T13:03:18;100126.73;;;21.48;31.39
72096;BME280;59968;51.084;16.748;2023-04-28T13:05:50;100113.39;;;21.35;31.44
72096;BME280;59968;51.084;16.748;2023-04-28T13:08:19;100126.58;;;21.33;30.88
72096;BME280;59968;51.084;16.748;2023-04-28T13:10:49;100123.84;;;21.28;30.50
72096;BME280;59968;51.084;16.748;2023-04-28T13:13:21;100121.05;;;21.28;30.16
72096;BME280;59968;51.084;16.748;2023-04-28T13:16:15;100118.23;;;21.34;29.98
72096;BME280;59968;51.084;16.748;2023-04-28T13:18:45;100111.70;;;21.41;30.24
72096;BME280;59968;51.084;16.748;2023-04-28T13:21:20;100108.70;;;21.45;31.24
72096;BME280;59968;51.084;16.748;2023-04-28T13:23:49;100111.80;;;21.42;31.03
72096;BME280;59968;51.084;16.748;2023-04-28T13:26:17;100108.80;;;21.44;31.52
72096;BME280;59968;51.084;16.748;2023-04-28T13:28:47;100108.00;;;21.44;31.29
72096;BME280;59968;51.084;16.748;2023-04-28T13:31:17;100112.02;;;21.40;31.27
72096;BME280;59968;51.084;16.748;2023-04-28T13:33:46;100107.95;;;21.40;31.10
72096;BME280;59968;51.084;16.748;2023-04-28T13:36:14;100102.15;;;21.40;31.31
72096;BME280;59968;51.084;16.748;2023-04-28T13:38:43;100101.88;;;21.37;31.23
72096;BME280;59968;51.084;16.748;2023-04-28T13:41:16;100098.45;;;21.34;31.36
72096;BME280;59968;51.084;16.748;2023-04-28T13:43:44;100097.83;;;21.37;31.05
72096;BME280;59968;51.084;16.748;2023-04-28T13:46:13;100094.49;;;21.36;31.20
72096;BME280;59968;51.084;16.748;2023-04-28T13:48:42;100090.38;;;21.34;31.95
72096;BME280;59968;51.084;16.748;2023-04-28T13:51:10;100087.42;;;21.34;31.43
72096;BME280;59968;51.084;16.748;2023-04-28T13:53:39;100085.05;;;21.32;31.65
72096;BME280;59968;51.084;16.748;2023-04-28T13:56:07;100081.27;;;21.28;31.01
72096;BME280;59968;51.084;16.748;2023-04-28T13:58:36;100077.25;;;21.27;30.93
72096;BME280;59968;51.084;16.748;2023-04-28T14:01:05;100069.86;;;21.25;30.67
72096;BME280;59968;51.084;16.748;2023-04-28T14:03:33;100073.51;;;21.30;30.74
72096;BME280;59968;51.084;16.748;2023-04-28T14:06:04;100067.91;;;21.29;30.60
72096;BME280;59968;51.084;16.748;2023-04-28T14:08:33;100063.39;;;21.25;30.48
72096;BME280;59968;51.084;16.748;2023-04-28T14:11:02;100060.73;;;21.23;30.53
72096;BME280;59968;51.084;16.748;2023-04-28T14:13:31;100057.95;;;21.13;30.63
72096;BME280;59968;51.084;16.748;2023-04-28T14:16:00;100061.08;;;21.03;31.84
72096;BME280;59968;51.084;16.748;2023-04-28T14:18:29;100055.27;;;20.91;32.07
72096;BME280;59968;51.084;16.748;2023-04-28T14:20:58;100051.17;;;20.78;31.59
72096;BME280;59968;51.084;16.748;2023-04-28T14:23:27;100047.06;;;20.69;32.09
72096;BME280;59968;51.084;16.748;2023-04-28T14:25:55;100043.98;;;20.62;32.01
72096;BME280;59968;51.084;16.748;2023-04-28T14:28:25;100044.71;;;20.58;32.61
72096;BME280;59968;51.084;16.748;2023-04-28T14:30:54;100045.56;;;20.56;32.81
72096;BME280;59968;51.084;16.748;2023-04-28T14:33:23;100042.76;;;20.54;32.62
72096;BME280;59968;51.084;16.748;2023-04-28T14:35:51;100037.11;;;20.54;32.52
72096;BME280;59968;51.084;16.748;2023-04-28T14:38:20;100039.19;;;20.58;32.16
72096;BME280;59968;51.084;16.748;2023-04-28T14:40:49;100037.86;;;20.57;32.16
72096;BME280;59968;51.084;16.748;2023-04-28T14:43:17;100030.95;;;20.54;32.58
72096;BME280;59968;51.084;16.748;2023-04-28T14:45:46;100030.05;;;20.52;32.53
72096;BME280;59968;51.084;16.748;2023-04-28T14:48:14;100027.90;;;20.51;32.96
72096;BME280;59968;51.084;16.748;2023-04-28T14:50:43;100024.05;;;20.49;32.75
72096;BME280;59968;51.084;16.748;2023-04-28T14:53:13;100019.60;;;20.45;32.19
72096;BME280;59968;51.084;16.748;2023-04-28T14:55:42;100019.59;;;20.42;32.24
72096;BME280;59968;51.084;16.748;2023-04-28T14:58:10;100016.80;;;20.40;32.59
72096;BME280;59968;51.084;16.748;2023-04-28T15:00:39;100017.09;;;20.33;32.73
72096;BME280;59968;51.084;16.748;2023-04-28T15:03:08;100016.05;;;20.22;32.99
72096;BME280;59968;51.084;16.748;2023-04-28T15:05:37;100015.80;;;20.13;33.02
72096;BME280;59968;51.084;16.748;2023-04-28T15:08:06;100013.85;;;20.01;33.00
72096;BME280;59968;51.084;16.748;2023-04-28T15:10:37;100016.31;;;19.96;33.23
72096;BME280;59968;51.084;16.748;2023-04-28T15:13:06;100013.67;;;19.86;33.33
72096;BME280;59968;51.084;16.748;2023-04-28T15:15:35;100011.98;;;19.81;33.83
72096;BME280;59968;51.084;16.748;2023-04-28T15:18:04;100013.27;;;19.78;33.77
72096;BME280;59968;51.084;16.748;2023-04-28T15:20:33;100014.03;;;19.74;33.64
72096;BME280;59968;51.084;16.748;2023-04-28T15:23:04;100009.55;;;19.70;33.70
72096;BME280;59968;51.084;16.748;2023-04-28T15:25:33;100009.58;;;19.66;33.91
72096;BME280;59968;51.084;16.748;2023-04-28T15:28:02;100006.98;;;19.63;34.18
72096;BME280;59968;51.084;16.748;2023-04-28T15:30:32;100007.75;;;19.60;34.25
72096;BME280;59968;51.084;16.748;2023-04-28T15:33:01;100003.31;;;19.56;34.45
72096;BME280;59968;51.084;16.748;2023-04-28T15:35:31;100002.16;;;19.48;34.41
72096;BME280;59968;51.084;16.748;2023-04-28T15:37:59;100002.14;;;19.39;34.68
72096;BME280;59968;51.084;16.748;2023-04-28T15:40:28;99994.64;;;19.27;34.96
72096;BME280;59968;51.084;16.748;2023-04-28T15:42:57;100002.08;;;19.25;35.73